sensor_id;sensor_type;location;lat;lon;timestamp;P1;durP1;ratioP1;P2;durP2;ratioP2
32633;SDS011;19043;51.012;5.648;2022-08-19T00:00:05;23.15;;;18.58;;
32633;SDS011;19043;51.012;5.648;2022-08-19T00:02:34;19.75;;;17.58;;
32633;SDS011;19043;51.012;5.648;2022-08-19T00:05:00;21.27;;;18.92;;
32633;SDS011;19043;51.012;5.648;2022-08-19T00:07:26;19.15;;;17.13;;
32633;SDS011;19043;51.012;5.648;2022-08-19T00:09:51;19.70;;;17.80;;
32633;SDS011;19043;51.012;5.648;2022-08-19T00:12:17;18.92;;;16.88;;
32633;SDS011;19043;51.012;5.648;2022-08-19T00:14:42;19.00;;;17.08;;
32633;SDS011;19043;51.012;5.648;2022-08-19T00:17:08;18.25;;;16.30;;
32633;SDS011;19043;51.012;5.648;2022-08-19T00:19:34;19.63;;;17.58;;
32633;SDS011;19043;51.012;5.648;2022-08-19T00:22:01;19.90;;;17.58;;
32633;SDS011;19043;51.012;5.648;2022-08-19T00:24:27;21.52;;;19.23;;
32633;SDS011;19043;51.012;5.648;2022-08-19T00:26:53;23.25;;;20.95;;
32633;SDS011;19043;51.012;5.648;2022-08-19T00:29:21;23.17;;;20.83;;
32633;SDS011;19043;51.012;5.648;2022-08-19T00:31:48;24.52;;;22.02;;
32633;SDS011;19043;51.012;5.648;2022-08-19T00:34:14;22.52;;;20.17;;
32633;SDS011;19043;51.012;5.648;2022-08-19T00:36:40;22.80;;;20.05;;
32633;SDS011;19043;51.012;5.648;2022-08-19T00:39:06;23.42;;;20.55;;
32633;SDS011;19043;51.012;5.648;2022-08-19T00:41:32;25.45;;;22.80;;
32633;SDS011;19043;51.012;5.648;2022-08-19T00:44:00;24.77;;;22.20;;
32633;SDS011;19043;51.012;5.648;2022-08-19T00:46:27;21.13;;;18.60;;
32633;SDS011;19043;51.012;5.648;2022-08-19T00:48:52;22.10;;;19.83;;
32633;SDS011;19043;51.012;5.648;2022-08-19T00:51:19;23.05;;;20.85;;
32633;SDS011;19043;51.012;5.648;2022-08-19T00:53:44;22.00;;;19.80;;
32633;SDS011;19043;51.012;5.648;2022-08-19T00:56:09;21.83;;;19.75;;
32633;SDS011;19043;51.012;5.648;2022-08-19T00:58:35;20.58;;;18.65;;
32633;SDS011;19043;51.012;5.648;2022-08-19T01:01:01;22.58;;;20.02;;
32633;SDS011;19043;51.012;5.648;2022-08-19T01:03:28;21.90;;;19.75;;
32633;SDS011;19043;51.012;5.648;2022-08-19T01:05:53;25.42;;;22.83;;
32633;SDS011;19043;51.012;5.648;2022-08-19T01:08:19;26.77;;;24.00;;
32633;SDS011;19043;51.012;5.648;2022-08-19T01:10:46;25.55;;;22.00;;
32633;SDS011;19043;51.012;5.648;2022-08-19T01:13:19;23.55;;;21.23;;
32633;SDS011;19043;51.012;5.648;2022-08-19T01:15:50;22.45;;;20.25;;
32633;SDS011;19043;51.012;5.648;2022-08-19T01:18:17;24.30;;;21.70;;
32633;SDS011;19043;51.012;5.648;2022-08-19T01:20:44;25.15;;;22.58;;
32633;SDS011;19043;51.012;5.648;2022-08-19T01:23:10;22.08;;;19.88;;
32633;SDS011;19043;51.012;5.648;2022-08-19T01:25:54;25.08;;;22.58;;
32633;SDS011;19043;51.012;5.648;2022-08-19T01:28:25;25.77;;;23.17;;
32633;SDS011;19043;51.012;5.648;2022-08-19T01:30:51;25.08;;;22.65;;
32633;SDS011;19043;51.012;5.648;2022-08-19T01:33:18;26.45;;;23.67;;
32633;SDS011;19043;51.012;5.648;2022-08-19T01:35:45;25.73;;;23.20;;
32633;SDS011;19043;51.012;5.648;2022-08-19T01:38:21;26.58;;;23.80;;
32633;SDS011;19043;51.012;5.648;2022-08-19T01:40:51;27.88;;;25.15;;
32633;SDS011;19043;51.012;5.648;2022-08-19T01:43:17;27.52;;;24.58;;
32633;SDS011;19043;51.012;5.648;2022-08-19T01:45:44;26.67;;;24.02;;
32633;SDS011;19043;51.012;5.648;2022-08-19T01:48:09;25.90;;;23.30;;
32633;SDS011;19043;51.012;5.648;2022-08-19T01:50:34;25.35;;;23.00;;
32633;SDS011;19043;51.012;5.648;2022-08-19T01:53:00;26.63;;;23.48;;
32633;SDS011;19043;51.012;5.648;2022-08-19T01:55:28;24.98;;;22.42;;
32633;SDS011;19043;51.012;5.648;2022-08-19T01:57:54;25.92;;;23.23;;
32633;SDS011;19043;51.012;5.648;2022-08-19T02:00:22;24.90;;;22.38;;
32633;SDS011;19043;51.012;5.648;2022-08-19T02:02:48;28.92;;;26.08;;
32633;SDS011;19043;51.012;5.648;2022-08-19T02:05:14;28.60;;;25.73;;
32633;SDS011;19043;51.012;5.648;2022-08-19T02:07:41;27.98;;;25.08;;
32633;SDS011;19043;51.012;5.648;2022-08-19T02:10:07;34.08;;;30.58;;
32633;SDS011;19043;51.012;5.648;2022-08-19T02:12:35;30.00;;;27.05;;
32633;SDS011;19043;51.012;5.648;2022-08-19T02:15:00;32.03;;;28.77;;
32633;SDS011;19043;51.012;5.648;2022-08-19T02:17:27;32.92;;;29.52;;
32633;SDS011;19043;51.012;5.648;2022-08-19T02:19:53;36.60;;;32.72;;
32633;SDS011;19043;51.012;5.648;2022-08-19T02:22:19;36.60;;;32.90;;
32633;SDS011;19043;51.012;5.648;2022-08-19T02:24:45;40.67;;;36.78;;
32633;SDS011;19043;51.012;5.648;2022-08-19T02:27:12;43.10;;;38.63;;
32633;SDS011;19043;51.012;5.648;2022-08-19T02:29:38;43.92;;;39.22;;
32633;SDS011;19043;51.012;5.648;2022-08-19T02:32:03;45.30;;;40.53;;
32633;SDS011;19043;51.012;5.648;2022-08-19T02:34:29;43.83;;;39.65;;
32633;SDS011;19043;51.012;5.648;2022-08-19T02:36:55;45.28;;;40.85;;
32633;SDS011;19043;51.012;5.648;2022-08-19T02:39:20;43.83;;;39.50;;
32633;SDS011;19043;51.012;5.648;2022-08-19T02:41:45;51.22;;;45.85;;
32633;SDS011;19043;51.012;5.648;2022-08-19T02:44:11;45.60;;;40.90;;
32633;SDS011;19043;51.012;5.648;2022-08-19T02:46:37;44.38;;;39.88;;
32633;SDS011;19043;51.012;5.648;2022-08-19T02:49:04;48.35;;;43.35;;
32633;SDS011;19043;51.012;5.648;2022-08-19T02:51:35;48.90;;;43.80;;
32633;SDS011;19043;51.012;5.648;2022-08-19T02:54:02;46.45;;;39.55;;
32633;SDS011;19043;51.012;5.648;2022-08-19T02:56:28;50.28;;;45.13;;
32633;SDS011;19043;51.012;5.648;2022-08-19T02:58:55;54.28;;;44.53;;
32633;SDS011;19043;51.012;5.648;2022-08-19T03:01:22;55.80;;;47.05;;
32633;SDS011;19043;51.012;5.648;2022-08-19T03:03:55;50.97;;;46.08;;
32633;SDS011;19043;51.012;5.648;2022-08-19T03:06:21;48.15;;;43.33;;
32633;SDS011;19043;51.012;5.648;2022-08-19T03:08:47;48.85;;;43.80;;
32633;SDS011;19043;51.012;5.648;2022-08-19T03:11:14;50.13;;;44.95;;
32633;SDS011;19043;51.012;5.648;2022-08-19T03:13:44;47.97;;;42.80;;
32633;SDS011;19043;51.012;5.648;2022-08-19T03:16:10;52.60;;;47.17;;
32633;SDS011;19043;51.012;5.648;2022-08-19T03:18:36;52.95;;;47.70;;
32633;SDS011;19043;51.012;5.648;2022-08-19T03:21:01;59.75;;;53.45;;
32633;SDS011;19043;51.012;5.648;2022-08-19T03:23:27;55.05;;;49.25;;
32633;SDS011;19043;51.012;5.648;2022-08-19T03:25:53;60.03;;;53.08;;
32633;SDS011;19043;51.012;5.648;2022-08-19T03:28:19;67.70;;;51.47;;
32633;SDS011;19043;51.012;5.648;2022-08-19T03:31:02;60.22;;;53.45;;
32633;SDS011;19043;51.012;5.648;2022-08-19T03:33:30;58.63;;;52.10;;
32633;SDS011;19043;51.012;5.648;2022-08-19T03:36:15;65.85;;;58.67;;
32633;SDS011;19043;51.012;5.648;2022-08-19T03:38:49;57.65;;;51.42;;
32633;SDS011;19043;51.012;5.648;2022-08-19T03:41:18;59.53;;;53.17;;
32633;SDS011;19043;51.012;5.648;2022-08-19T03:43:45;72.68;;;53.13;;
32633;SDS011;19043;51.012;5.648;2022-08-19T03:46:16;59.55;;;50.40;;
32633;SDS011;19043;51.012;5.648;2022-08-19T03:48:47;57.65;;;51.67;;
32633;SDS011;19043;51.012;5.648;2022-08-19T03:51:17;65.20;;;55.78;;
32633;SDS011;19043;51.012;5.648;2022-08-19T03:53:47;76.93;;;61.05;;
32633;SDS011;19043;51.012;5.648;2022-08-19T03:56:13;74.15;;;66.22;;
32633;SDS011;19043;51.012;5.648;2022-08-19T03:58:39;69.10;;;58.13;;
32633;SDS011;19043;51.012;5.648;2022-08-19T04:01:08;75.25;;;64.32;;
32633;SDS011;19043;51.012;5.648;2022-08-19T04:03:35;66.88;;;56.90;;
32633;SDS011;19043;51.012;5.648;2022-08-19T04:06:20;77.63;;;63.58;;
32633;SDS011;19043;51.012;5.648;2022-08-19T04:08:48;76.87;;;58.40;;
32633;SDS011;19043;51.012;5.648;2022-08-19T04:11:16;65.60;;;53.80;;
32633;SDS011;19043;51.012;5.648;2022-08-19T04:13:43;66.25;;;53.33;;
32633;SDS011;19043;51.012;5.648;2022-08-19T04:16:09;61.78;;;52.67;;
32633;SDS011;19043;51.012;5.648;2022-08-19T04:18:35;70.65;;;55.38;;
32633;SDS011;19043;51.012;5.648;2022-08-19T04:21:02;62.03;;;55.22;;
32633;SDS011;19043;51.012;5.648;2022-08-19T04:23:28;68.78;;;54.55;;
32633;SDS011;19043;51.012;5.648;2022-08-19T04:25:54;76.40;;;58.60;;
32633;SDS011;19043;51.012;5.648;2022-08-19T04:28:20;69.22;;;56.67;;
32633;SDS011;19043;51.012;5.648;2022-08-19T04:30:47;77.53;;;59.63;;
32633;SDS011;19043;51.012;5.648;2022-08-19T04:33:14;76.57;;;58.25;;
32633;SDS011;19043;51.012;5.648;2022-08-19T04:35:42;77.43;;;57.33;;
32633;SDS011;19043;51.012;5.648;2022-08-19T04:38:09;70.57;;;58.17;;
32633;SDS011;19043;51.012;5.648;2022-08-19T04:40:47;68.03;;;54.80;;
32633;SDS011;19043;51.012;5.648;2022-08-19T04:43:32;74.55;;;60.97;;
32633;SDS011;19043;51.012;5.648;2022-08-19T04:46:03;90.45;;;69.40;;
32633;SDS011;19043;51.012;5.648;2022-08-19T04:48:33;77.38;;;63.63;;
32633;SDS011;19043;51.012;5.648;2022-08-19T04:51:00;75.80;;;59.25;;
32633;SDS011;19043;51.012;5.648;2022-08-19T04:53:26;72.07;;;58.22;;
32633;SDS011;19043;51.012;5.648;2022-08-19T04:55:56;70.18;;;57.38;;
32633;SDS011;19043;51.012;5.648;2022-08-19T04:58:23;83.15;;;60.72;;
32633;SDS011;19043;51.012;5.648;2022-08-19T05:00:49;72.32;;;59.10;;
32633;SDS011;19043;51.012;5.648;2022-08-19T05:03:14;71.68;;;59.75;;
32633;SDS011;19043;51.012;5.648;2022-08-19T05:05:42;74.68;;;60.83;;
32633;SDS011;19043;51.012;5.648;2022-08-19T05:08:15;76.13;;;59.35;;
32633;SDS011;19043;51.012;5.648;2022-08-19T05:10:50;78.70;;;60.58;;
32633;SDS011;19043;51.012;5.648;2022-08-19T05:13:17;79.05;;;62.63;;
32633;SDS011;19043;51.012;5.648;2022-08-19T05:15:44;77.15;;;59.03;;
32633;SDS011;19043;51.012;5.648;2022-08-19T05:18:19;77.50;;;60.65;;
32633;SDS011;19043;51.012;5.648;2022-08-19T05:21:08;72.28;;;57.50;;
32633;SDS011;19043;51.012;5.648;2022-08-19T05:23:56;78.30;;;61.53;;
32633;SDS011;19043;51.012;5.648;2022-08-19T05:26:22;82.45;;;63.03;;
32633;SDS011;19043;51.012;5.648;2022-08-19T05:28:48;82.10;;;64.50;;
32633;SDS011;19043;51.012;5.648;2022-08-19T05:31:13;84.45;;;63.53;;
32633;SDS011;19043;51.012;5.648;2022-08-19T05:33:38;87.55;;;61.63;;
32633;SDS011;19043;51.012;5.648;2022-08-19T05:36:04;71.55;;;58.63;;
32633;SDS011;19043;51.012;5.648;2022-08-19T05:38:30;73.18;;;60.20;;
32633;SDS011;19043;51.012;5.648;2022-08-19T05:40:57;81.45;;;58.85;;
32633;SDS011;19043;51.012;5.648;2022-08-19T05:43:22;82.25;;;63.53;;
32633;SDS011;19043;51.012;5.648;2022-08-19T05:45:47;75.38;;;57.80;;
32633;SDS011;19043;51.012;5.648;2022-08-19T05:48:15;69.53;;;55.45;;
32633;SDS011;19043;51.012;5.648;2022-08-19T05:50:42;70.40;;;55.40;;
32633;SDS011;19043;51.012;5.648;2022-08-19T05:53:07;76.28;;;58.00;;
32633;SDS011;19043;51.012;5.648;2022-08-19T05:55:34;72.72;;;53.22;;
32633;SDS011;19043;51.012;5.648;2022-08-19T05:58:00;66.47;;;55.88;;
32633;SDS011;19043;51.012;5.648;2022-08-19T06:00:26;69.35;;;54.10;;
32633;SDS011;19043;51.012;5.648;2022-08-19T06:02:52;62.38;;;51.28;;
32633;SDS011;19043;51.012;5.648;2022-08-19T06:05:21;60.83;;;48.58;;
32633;SDS011;19043;51.012;5.648;2022-08-19T06:07:46;64.65;;;49.58;;
32633;SDS011;19043;51.012;5.648;2022-08-19T06:10:12;59.60;;;50.40;;
32633;SDS011;19043;51.012;5.648;2022-08-19T06:12:37;62.67;;;52.47;;
32633;SDS011;19043;51.012;5.648;2022-08-19T06:15:12;64.20;;;47.95;;
32633;SDS011;19043;51.012;5.648;2022-08-19T06:17:38;52.97;;;46.17;;
32633;SDS011;19043;51.012;5.648;2022-08-19T06:20:07;54.17;;;48.15;;
32633;SDS011;19043;51.012;5.648;2022-08-19T06:22:38;58.33;;;47.85;;
32633;SDS011;19043;51.012;5.648;2022-08-19T06:25:08;60.00;;;46.25;;
32633;SDS011;19043;51.012;5.648;2022-08-19T06:27:34;55.88;;;49.15;;
32633;SDS011;19043;51.012;5.648;2022-08-19T06:30:00;53.97;;;45.47;;
32633;SDS011;19043;51.012;5.648;2022-08-19T06:32:26;52.97;;;43.00;;
32633;SDS011;19043;51.012;5.648;2022-08-19T06:34:52;53.22;;;43.40;;
32633;SDS011;19043;51.012;5.648;2022-08-19T06:37:17;52.95;;;43.75;;
32633;SDS011;19043;51.012;5.648;2022-08-19T06:39:43;51.42;;;39.92;;
32633;SDS011;19043;51.012;5.648;2022-08-19T06:42:09;46.33;;;38.20;;
32633;SDS011;19043;51.012;5.648;2022-08-19T06:44:38;45.97;;;37.25;;
32633;SDS011;19043;51.012;5.648;2022-08-19T06:47:06;52.80;;;42.05;;
32633;SDS011;19043;51.012;5.648;2022-08-19T06:49:33;56.33;;;41.72;;
32633;SDS011;19043;51.012;5.648;2022-08-19T06:51:59;49.22;;;40.45;;
32633;SDS011;19043;51.012;5.648;2022-08-19T06:54:25;46.17;;;38.35;;
32633;SDS011;19043;51.012;5.648;2022-08-19T06:56:51;45.67;;;38.95;;
32633;SDS011;19043;51.012;5.648;2022-08-19T06:59:18;45.67;;;37.33;;
32633;SDS011;19043;51.012;5.648;2022-08-19T07:01:46;52.13;;;37.08;;
32633;SDS011;19043;51.012;5.648;2022-08-19T07:04:14;38.65;;;33.10;;
32633;SDS011;19043;51.012;5.648;2022-08-19T07:06:41;50.40;;;38.03;;
32633;SDS011;19043;51.012;5.648;2022-08-19T07:09:08;42.45;;;35.05;;
32633;SDS011;19043;51.012;5.648;2022-08-19T07:11:34;40.92;;;35.25;;
32633;SDS011;19043;51.012;5.648;2022-08-19T07:14:00;41.33;;;35.30;;
32633;SDS011;19043;51.012;5.648;2022-08-19T07:16:26;39.92;;;33.50;;
32633;SDS011;19043;51.012;5.648;2022-08-19T07:18:52;39.53;;;34.47;;
32633;SDS011;19043;51.012;5.648;2022-08-19T07:21:22;39.25;;;34.78;;
32633;SDS011;19043;51.012;5.648;2022-08-19T07:23:49;47.80;;;34.55;;
32633;SDS011;19043;51.012;5.648;2022-08-19T07:26:16;44.17;;;33.15;;
32633;SDS011;19043;51.012;5.648;2022-08-19T07:28:45;46.80;;;36.55;;
32633;SDS011;19043;51.012;5.648;2022-08-19T07:31:11;40.25;;;35.75;;
32633;SDS011;19043;51.012;5.648;2022-08-19T07:33:38;50.08;;;36.65;;
32633;SDS011;19043;51.012;5.648;2022-08-19T07:36:04;37.70;;;31.52;;
32633;SDS011;19043;51.012;5.648;2022-08-19T07:38:32;39.05;;;33.67;;
32633;SDS011;19043;51.012;5.648;2022-08-19T07:40:58;35.65;;;31.95;;
32633;SDS011;19043;51.012;5.648;2022-08-19T07:43:23;37.88;;;30.13;;
32633;SDS011;19043;51.012;5.648;2022-08-19T07:45:51;34.33;;;29.75;;
32633;SDS011;19043;51.012;5.648;2022-08-19T07:48:18;37.47;;;27.90;;
32633;SDS011;19043;51.012;5.648;2022-08-19T07:50:43;42.53;;;30.73;;
32633;SDS011;19043;51.012;5.648;2022-08-19T07:53:09;38.55;;;28.63;;
32633;SDS011;19043;51.012;5.648;2022-08-19T07:55:34;33.42;;;27.70;;
32633;SDS011;19043;51.012;5.648;2022-08-19T07:58:00;37.30;;;26.98;;
32633;SDS011;19043;51.012;5.648;2022-08-19T08:00:25;30.92;;;25.17;;
32633;SDS011;19043;51.012;5.648;2022-08-19T08:02:52;34.35;;;25.45;;
32633;SDS011;19043;51.012;5.648;2022-08-19T08:05:17;34.45;;;25.35;;
32633;SDS011;19043;51.012;5.648;2022-08-19T08:08:02;29.70;;;23.05;;
32633;SDS011;19043;51.012;5.648;2022-08-19T08:10:46;29.20;;;23.88;;
32633;SDS011;19043;51.012;5.648;2022-08-19T08:13:11;28.83;;;24.40;;
32633;SDS011;19043;51.012;5.648;2022-08-19T08:15:37;31.52;;;23.17;;
32633;SDS011;19043;51.012;5.648;2022-08-19T08:18:03;28.55;;;19.92;;
32633;SDS011;19043;51.012;5.648;2022-08-19T08:20:29;26.90;;;19.65;;
32633;SDS011;19043;51.012;5.648;2022-08-19T08:22:54;34.30;;;24.45;;
32633;SDS011;19043;51.012;5.648;2022-08-19T08:25:38;21.67;;;19.40;;
32633;SDS011;19043;51.012;5.648;2022-08-19T08:28:04;29.60;;;19.85;;
32633;SDS011;19043;51.012;5.648;2022-08-19T08:30:30;35.20;;;22.48;;
32633;SDS011;19043;51.012;5.648;2022-08-19T08:32:57;29.65;;;21.13;;
32633;SDS011;19043;51.012;5.648;2022-08-19T08:35:23;27.48;;;19.10;;
32633;SDS011;19043;51.012;5.648;2022-08-19T08:37:50;29.25;;;19.75;;
32633;SDS011;19043;51.012;5.648;2022-08-19T08:40:19;22.02;;;16.27;;
32633;SDS011;19043;51.012;5.648;2022-08-19T08:43:03;18.50;;;16.02;;
32633;SDS011;19043;51.012;5.648;2022-08-19T08:45:33;17.13;;;13.25;;
32633;SDS011;19043;51.012;5.648;2022-08-19T08:48:02;24.88;;;13.30;;
32633;SDS011;19043;51.012;5.648;2022-08-19T08:50:33;16.13;;;12.68;;
32633;SDS011;19043;51.012;5.648;2022-08-19T08:53:01;21.52;;;14.60;;
32633;SDS011;19043;51.012;5.648;2022-08-19T08:55:27;15.65;;;13.55;;
32633;SDS011;19043;51.012;5.648;2022-08-19T08:58:01;17.10;;;14.00;;
32633;SDS011;19043;51.012;5.648;2022-08-19T09:00:32;17.40;;;13.33;;
32633;SDS011;19043;51.012;5.648;2022-08-19T09:03:01;17.00;;;12.95;;
32633;SDS011;19043;51.012;5.648;2022-08-19T09:06:03;13.65;;;11.35;;
32633;SDS011;19043;51.012;5.648;2022-08-19T09:08:39;16.10;;;12.00;;
32633;SDS011;19043;51.012;5.648;2022-08-19T09:11:10;18.45;;;11.68;;
32633;SDS011;19043;51.012;5.648;2022-08-19T09:13:55;11.88;;;10.68;;
32633;SDS011;19043;51.012;5.648;2022-08-19T09:16:32;15.32;;;11.95;;
32633;SDS011;19043;51.012;5.648;2022-08-19T09:19:00;14.45;;;11.63;;
32633;SDS011;19043;51.012;5.648;2022-08-19T09:21:27;12.55;;;10.10;;
32633;SDS011;19043;51.012;5.648;2022-08-19T09:23:53;14.15;;;12.32;;
32633;SDS011;19043;51.012;5.648;2022-08-19T09:26:21;13.63;;;11.20;;
32633;SDS011;19043;51.012;5.648;2022-08-19T09:28:48;14.45;;;10.02;;
32633;SDS011;19043;51.012;5.648;2022-08-19T09:31:14;20.00;;;12.52;;
32633;SDS011;19043;51.012;5.648;2022-08-19T09:33:44;16.58;;;12.00;;
32633;SDS011;19043;51.012;5.648;2022-08-19T09:36:12;11.57;;;9.55;;
32633;SDS011;19043;51.012;5.648;2022-08-19T09:38:39;14.13;;;11.45;;
32633;SDS011;19043;51.012;5.648;2022-08-19T09:41:07;14.40;;;10.02;;
32633;SDS011;19043;51.012;5.648;2022-08-19T09:43:37;12.70;;;9.02;;
32633;SDS011;19043;51.012;5.648;2022-08-19T09:46:03;19.95;;;9.77;;
32633;SDS011;19043;51.012;5.648;2022-08-19T09:48:31;13.93;;;9.95;;
32633;SDS011;19043;51.012;5.648;2022-08-19T09:51:08;12.00;;;9.10;;
32633;SDS011;19043;51.012;5.648;2022-08-19T09:53:35;13.02;;;8.25;;
32633;SDS011;19043;51.012;5.648;2022-08-19T09:56:01;14.52;;;9.95;;
32633;SDS011;19043;51.012;5.648;2022-08-19T09:58:27;11.18;;;8.18;;
32633;SDS011;19043;51.012;5.648;2022-08-19T10:00:55;15.80;;;9.30;;
32633;SDS011;19043;51.012;5.648;2022-08-19T10:03:21;15.80;;;8.73;;
32633;SDS011;19043;51.012;5.648;2022-08-19T10:05:46;10.95;;;7.70;;
32633;SDS011;19043;51.012;5.648;2022-08-19T10:08:21;9.85;;;7.72;;
32633;SDS011;19043;51.012;5.648;2022-08-19T10:10:50;12.13;;;8.23;;
32633;SDS011;19043;51.012;5.648;2022-08-19T10:13:16;17.45;;;8.73;;
32633;SDS011;19043;51.012;5.648;2022-08-19T10:15:43;13.88;;;8.73;;
32633;SDS011;19043;51.012;5.648;2022-08-19T10:18:09;14.30;;;8.90;;
32633;SDS011;19043;51.012;5.648;2022-08-19T10:20:34;16.70;;;8.82;;
32633;SDS011;19043;51.012;5.648;2022-08-19T10:23:01;15.77;;;8.60;;
32633;SDS011;19043;51.012;5.648;2022-08-19T10:25:27;10.80;;;7.88;;
32633;SDS011;19043;51.012;5.648;2022-08-19T10:27:53;13.77;;;7.50;;
32633;SDS011;19043;51.012;5.648;2022-08-19T10:30:19;13.57;;;7.75;;
32633;SDS011;19043;51.012;5.648;2022-08-19T10:32:45;14.23;;;7.38;;
32633;SDS011;19043;51.012;5.648;2022-08-19T10:35:11;14.07;;;7.07;;
32633;SDS011;19043;51.012;5.648;2022-08-19T10:37:38;13.43;;;7.60;;
32633;SDS011;19043;51.012;5.648;2022-08-19T10:40:07;10.57;;;6.90;;
32633;SDS011;19043;51.012;5.648;2022-08-19T10:42:34;10.77;;;6.13;;
32633;SDS011;19043;51.012;5.648;2022-08-19T10:45:00;8.85;;;5.88;;
32633;SDS011;19043;51.012;5.648;2022-08-19T10:47:25;10.70;;;5.95;;
32633;SDS011;19043;51.012;5.648;2022-08-19T10:49:52;9.15;;;5.65;;
32633;SDS011;19043;51.012;5.648;2022-08-19T10:52:37;7.75;;;6.13;;
32633;SDS011;19043;51.012;5.648;2022-08-19T10:55:03;9.63;;;5.85;;
32633;SDS011;19043;51.012;5.648;2022-08-19T10:57:49;9.77;;;5.60;;
32633;SDS011;19043;51.012;5.648;2022-08-19T11:00:14;13.43;;;4.95;;
32633;SDS011;19043;51.012;5.648;2022-08-19T11:02:40;12.32;;;5.00;;
32633;SDS011;19043;51.012;5.648;2022-08-19T11:05:06;9.02;;;5.32;;
32633;SDS011;19043;51.012;5.648;2022-08-19T11:07:34;6.03;;;4.78;;
32633;SDS011;19043;51.012;5.648;2022-08-19T11:10:01;9.55;;;4.25;;
32633;SDS011;19043;51.012;5.648;2022-08-19T11:12:27;6.65;;;4.68;;
32633;SDS011;19043;51.012;5.648;2022-08-19T11:14:53;13.52;;;5.10;;
32633;SDS011;19043;51.012;5.648;2022-08-19T11:17:19;7.25;;;4.28;;
32633;SDS011;19043;51.012;5.648;2022-08-19T11:19:45;6.20;;;4.13;;
32633;SDS011;19043;51.012;5.648;2022-08-19T11:22:13;9.07;;;5.75;;
32633;SDS011;19043;51.012;5.648;2022-08-19T11:24:38;8.77;;;4.30;;
32633;SDS011;19043;51.012;5.648;2022-08-19T11:27:05;14.13;;;4.00;;
32633;SDS011;19043;51.012;5.648;2022-08-19T11:29:32;7.20;;;3.80;;
32633;SDS011;19043;51.012;5.648;2022-08-19T11:31:59;6.05;;;3.88;;
32633;SDS011;19043;51.012;5.648;2022-08-19T11:34:26;10.68;;;4.40;;
32633;SDS011;19043;51.012;5.648;2022-08-19T11:36:53;8.80;;;5.13;;
32633;SDS011;19043;51.012;5.648;2022-08-19T11:39:22;8.30;;;4.03;;
32633;SDS011;19043;51.012;5.648;2022-08-19T11:41:48;8.65;;;4.60;;
32633;SDS011;19043;51.012;5.648;2022-08-19T11:44:13;7.70;;;3.90;;
32633;SDS011;19043;51.012;5.648;2022-08-19T11:46:39;8.82;;;4.25;;
32633;SDS011;19043;51.012;5.648;2022-08-19T11:49:05;6.95;;;3.85;;
32633;SDS011;19043;51.012;5.648;2022-08-19T11:51:32;5.25;;;3.35;;
32633;SDS011;19043;51.012;5.648;2022-08-19T11:53:58;7.60;;;3.45;;
32633;SDS011;19043;51.012;5.648;2022-08-19T11:56:25;7.50;;;3.97;;
32633;SDS011;19043;51.012;5.648;2022-08-19T11:58:52;5.07;;;2.92;;
32633;SDS011;19043;51.012;5.648;2022-08-19T12:01:18;4.55;;;3.17;;
32633;SDS011;19043;51.012;5.648;2022-08-19T12:03:46;8.93;;;3.72;;
32633;SDS011;19043;51.012;5.648;2022-08-19T12:06:13;3.65;;;2.47;;
32633;SDS011;19043;51.012;5.648;2022-08-19T12:08:41;5.82;;;3.90;;
32633;SDS011;19043;51.012;5.648;2022-08-19T12:11:08;10.68;;;4.07;;
32633;SDS011;19043;51.012;5.648;2022-08-19T12:13:34;5.38;;;2.78;;
32633;SDS011;19043;51.012;5.648;2022-08-19T12:15:59;6.15;;;3.50;;
32633;SDS011;19043;51.012;5.648;2022-08-19T12:18:25;5.68;;;3.30;;
32633;SDS011;19043;51.012;5.648;2022-08-19T12:20:51;6.25;;;3.28;;
32633;SDS011;19043;51.012;5.648;2022-08-19T12:23:18;7.88;;;4.15;;
32633;SDS011;19043;51.012;5.648;2022-08-19T12:25:44;7.70;;;3.90;;
32633;SDS011;19043;51.012;5.648;2022-08-19T12:28:18;5.95;;;4.00;;
32633;SDS011;19043;51.012;5.648;2022-08-19T12:30:45;5.75;;;3.60;;
32633;SDS011;19043;51.012;5.648;2022-08-19T12:33:11;7.13;;;2.85;;
32633;SDS011;19043;51.012;5.648;2022-08-19T12:35:41;5.95;;;2.35;;
32633;SDS011;19043;51.012;5.648;2022-08-19T12:38:08;6.93;;;3.25;;
32633;SDS011;19043;51.012;5.648;2022-08-19T12:40:34;5.88;;;3.40;;
32633;SDS011;19043;51.012;5.648;2022-08-19T12:43:00;6.45;;;2.85;;
32633;SDS011;19043;51.012;5.648;2022-08-19T12:45:25;5.40;;;2.50;;
32633;SDS011;19043;51.012;5.648;2022-08-19T12:47:50;3.25;;;1.77;;
32633;SDS011;19043;51.012;5.648;2022-08-19T12:50:18;4.30;;;2.45;;
32633;SDS011;19043;51.012;5.648;2022-08-19T12:52:46;7.38;;;3.33;;
32633;SDS011;19043;51.012;5.648;2022-08-19T12:55:12;5.18;;;2.35;;
32633;SDS011;19043;51.012;5.648;2022-08-19T12:57:37;5.18;;;2.65;;
32633;SDS011;19043;51.012;5.648;2022-08-19T13:00:07;6.32;;;3.10;;
32633;SDS011;19043;51.012;5.648;2022-08-19T13:02:40;3.60;;;2.38;;
32633;SDS011;19043;51.012;5.648;2022-08-19T13:05:12;6.15;;;2.67;;
32633;SDS011;19043;51.012;5.648;2022-08-19T13:07:39;6.47;;;2.35;;
32633;SDS011;19043;51.012;5.648;2022-08-19T13:10:06;6.40;;;2.38;;
32633;SDS011;19043;51.012;5.648;2022-08-19T13:12:33;5.38;;;2.42;;
32633;SDS011;19043;51.012;5.648;2022-08-19T13:14:58;4.35;;;2.55;;
32633;SDS011;19043;51.012;5.648;2022-08-19T13:17:24;4.75;;;2.95;;
32633;SDS011;19043;51.012;5.648;2022-08-19T13:19:49;4.65;;;2.70;;
32633;SDS011;19043;51.012;5.648;2022-08-19T13:22:15;4.22;;;2.60;;
32633;SDS011;19043;51.012;5.648;2022-08-19T13:24:41;3.83;;;2.42;;
32633;SDS011;19043;51.012;5.648;2022-08-19T13:27:06;4.45;;;2.80;;
32633;SDS011;19043;51.012;5.648;2022-08-19T13:29:32;4.93;;;2.85;;
32633;SDS011;19043;51.012;5.648;2022-08-19T13:32:16;3.85;;;2.28;;
32633;SDS011;19043;51.012;5.648;2022-08-19T13:35:00;4.68;;;2.28;;
32633;SDS011;19043;51.012;5.648;2022-08-19T13:37:26;4.97;;;2.63;;
32633;SDS011;19043;51.012;5.648;2022-08-19T13:40:11;6.32;;;3.72;;
32633;SDS011;19043;51.012;5.648;2022-08-19T13:42:45;6.15;;;3.55;;
32633;SDS011;19043;51.012;5.648;2022-08-19T13:45:12;6.07;;;2.88;;
32633;SDS011;19043;51.012;5.648;2022-08-19T13:47:39;5.15;;;2.60;;
32633;SDS011;19043;51.012;5.648;2022-08-19T13:50:13;7.68;;;3.33;;
32633;SDS011;19043;51.012;5.648;2022-08-19T13:52:40;4.97;;;3.53;;
32633;SDS011;19043;51.012;5.648;2022-08-19T13:55:06;4.85;;;3.40;;
32633;SDS011;19043;51.012;5.648;2022-08-19T13:57:32;6.13;;;3.30;;
32633;SDS011;19043;51.012;5.648;2022-08-19T13:59:58;4.65;;;2.83;;
32633;SDS011;19043;51.012;5.648;2022-08-19T14:02:24;6.90;;;3.58;;
32633;SDS011;19043;51.012;5.648;2022-08-19T14:04:49;4.88;;;2.58;;
32633;SDS011;19043;51.012;5.648;2022-08-19T14:07:15;5.07;;;2.95;;
32633;SDS011;19043;51.012;5.648;2022-08-19T14:09:40;4.60;;;2.65;;
32633;SDS011;19043;51.012;5.648;2022-08-19T14:12:06;5.95;;;3.15;;
32633;SDS011;19043;51.012;5.648;2022-08-19T14:14:32;4.40;;;2.60;;
32633;SDS011;19043;51.012;5.648;2022-08-19T14:16:57;4.53;;;2.63;;
32633;SDS011;19043;51.012;5.648;2022-08-19T14:19:22;6.05;;;2.83;;
32633;SDS011;19043;51.012;5.648;2022-08-19T14:21:48;5.57;;;2.97;;
32633;SDS011;19043;51.012;5.648;2022-08-19T14:24:13;9.40;;;3.25;;
32633;SDS011;19043;51.012;5.648;2022-08-19T14:26:39;7.00;;;3.78;;
32633;SDS011;19043;51.012;5.648;2022-08-19T14:29:04;5.60;;;2.90;;
32633;SDS011;19043;51.012;5.648;2022-08-19T14:31:29;7.43;;;3.38;;